Callville Bay, Nevada
Current Conditions -  °F | °C
As of 6:56 PM on Saturday 24 Jan 2015 (Local Time) from KHND Reporting Station
Clear Clear  
Wind Chill: 54°   Ceiling: Unl
Heat Index: 54°   Visibility: 10mi
Dew Point: 24°   Wind: 3mph
Humidity: 31%   Direction: 310°NW
Pressure: 30.25"   Gusts: NA
Location:  35.8437°N, 115.134°W
Report Text: KHND 250256Z 31003KT 10SM CLR 12/M04 A3025 RMK AO2 SLP245 T01221044 53006
Loading
Personal Weather Stations






























Interactive Weather Map New forecast layout! Learn more

10-Day Weather Forecast

Advertisements
Track Severe Weather on mobile